sensor_id;sensor_type;location;lat;lon;timestamp;P1;durP1;ratioP1;P2;durP2;ratioP2
34064;SDS011;20339;49.754;20.158;2022-09-09T00:01:29;8.90;;;8.00;;
34064;SDS011;20339;49.754;20.158;2022-09-09T00:04:15;8.20;;;7.40;;
34064;SDS011;20339;49.754;20.158;2022-09-09T00:06:55;7.60;;;6.90;;
34064;SDS011;20339;49.754;20.158;2022-09-09T00:09:41;7.50;;;6.80;;
34064;SDS011;20339;49.754;20.158;2022-09-09T00:12:18;8.90;;;7.60;;
34064;SDS011;20339;49.754;20.158;2022-09-09T00:14:55;9.20;;;7.70;;
34064;SDS011;20339;49.754;20.158;2022-09-09T00:17:32;8.90;;;7.90;;
34064;SDS011;20339;49.754;20.158;2022-09-09T00:20:11;8.10;;;6.60;;
34064;SDS011;20339;49.754;20.158;2022-09-09T00:22:47;7.60;;;6.80;;
34064;SDS011;20339;49.754;20.158;2022-09-09T00:25:26;5.60;;;5.00;;
34064;SDS011;20339;49.754;20.158;2022-09-09T00:28:06;6.60;;;4.70;;
34064;SDS011;20339;49.754;20.158;2022-09-09T00:30:43;6.90;;;5.60;;
34064;SDS011;20339;49.754;20.158;2022-09-09T00:33:18;3.40;;;3.10;;
34064;SDS011;20339;49.754;20.158;2022-09-09T00:35:53;2.60;;;2.40;;
34064;SDS011;20339;49.754;20.158;2022-09-09T00:38:35;2.20;;;2.00;;
34064;SDS011;20339;49.754;20.158;2022-09-09T00:41:11;2.70;;;2.20;;
34064;SDS011;20339;49.754;20.158;2022-09-09T00:43:52;2.30;;;2.10;;
34064;SDS011;20339;49.754;20.158;2022-09-09T00:46:48;2.90;;;2.50;;
34064;SDS011;20339;49.754;20.158;2022-09-09T00:49:28;2.70;;;2.50;;
34064;SDS011;20339;49.754;20.158;2022-09-09T00:52:15;2.90;;;2.50;;
34064;SDS011;20339;49.754;20.158;2022-09-09T00:55:00;2.60;;;2.40;;
34064;SDS011;20339;49.754;20.158;2022-09-09T00:57:37;3.50;;;2.40;;
34064;SDS011;20339;49.754;20.158;2022-09-09T01:00:20;2.90;;;2.20;;
34064;SDS011;20339;49.754;20.158;2022-09-09T01:06:00;3.10;;;2.70;;
34064;SDS011;20339;49.754;20.158;2022-09-09T01:08:49;4.00;;;2.40;;
34064;SDS011;20339;49.754;20.158;2022-09-09T01:11:42;3.30;;;3.00;;
34064;SDS011;20339;49.754;20.158;2022-09-09T01:14:24;3.20;;;2.50;;
34064;SDS011;20339;49.754;20.158;2022-09-09T01:17:10;3.30;;;2.50;;
34064;SDS011;20339;49.754;20.158;2022-09-09T01:19:52;4.40;;;2.80;;
34064;SDS011;20339;49.754;20.158;2022-09-09T01:22:32;3.50;;;3.00;;
34064;SDS011;20339;49.754;20.158;2022-09-09T01:28:00;2.80;;;2.60;;
34064;SDS011;20339;49.754;20.158;2022-09-09T01:30:38;3.20;;;2.90;;
34064;SDS011;20339;49.754;20.158;2022-09-09T01:33:11;3.90;;;3.10;;
34064;SDS011;20339;49.754;20.158;2022-09-09T01:35:46;5.80;;;3.00;;
34064;SDS011;20339;49.754;20.158;2022-09-09T01:38:22;3.40;;;2.90;;
34064;SDS011;20339;49.754;20.158;2022-09-09T01:40:54;3.70;;;3.30;;
34064;SDS011;20339;49.754;20.158;2022-09-09T01:43:26;3.50;;;3.20;;
34064;SDS011;20339;49.754;20.158;2022-09-09T01:46:00;4.30;;;3.70;;
34064;SDS011;20339;49.754;20.158;2022-09-09T01:48:32;3.50;;;3.20;;
34064;SDS011;20339;49.754;20.158;2022-09-09T01:51:03;3.80;;;3.40;;
34064;SDS011;20339;49.754;20.158;2022-09-09T01:53:36;4.10;;;3.50;;
34064;SDS011;20339;49.754;20.158;2022-09-09T01:56:15;5.10;;;4.80;;
34064;SDS011;20339;49.754;20.158;2022-09-09T01:59:00;3.50;;;3.00;;
34064;SDS011;20339;49.754;20.158;2022-09-09T02:01:45;2.90;;;2.50;;
34064;SDS011;20339;49.754;20.158;2022-09-09T02:04:30;3.70;;;2.80;;
34064;SDS011;20339;49.754;20.158;2022-09-09T02:07:11;2.60;;;2.40;;
34064;SDS011;20339;49.754;20.158;2022-09-09T02:09:51;2.70;;;2.50;;
34064;SDS011;20339;49.754;20.158;2022-09-09T02:12:27;2.30;;;2.10;;
34064;SDS011;20339;49.754;20.158;2022-09-09T02:15:00;2.90;;;2.60;;
34064;SDS011;20339;49.754;20.158;2022-09-09T02:17:37;2.60;;;2.40;;
34064;SDS011;20339;49.754;20.158;2022-09-09T02:20:13;3.00;;;2.80;;
34064;SDS011;20339;49.754;20.158;2022-09-09T02:22:44;3.50;;;2.90;;
34064;SDS011;20339;49.754;20.158;2022-09-09T02:25:19;2.60;;;2.30;;
34064;SDS011;20339;49.754;20.158;2022-09-09T02:27:56;4.20;;;2.70;;
34064;SDS011;20339;49.754;20.158;2022-09-09T02:30:28;3.20;;;2.70;;
34064;SDS011;20339;49.754;20.158;2022-09-09T02:33:02;3.00;;;2.70;;
34064;SDS011;20339;49.754;20.158;2022-09-09T02:35:38;3.70;;;2.50;;
34064;SDS011;20339;49.754;20.158;2022-09-09T02:38:12;2.80;;;2.40;;
34064;SDS011;20339;49.754;20.158;2022-09-09T02:40:45;2.40;;;2.20;;
34064;SDS011;20339;49.754;20.158;2022-09-09T02:43:16;2.70;;;2.50;;
34064;SDS011;20339;49.754;20.158;2022-09-09T02:45:49;2.40;;;2.20;;
34064;SDS011;20339;49.754;20.158;2022-09-09T02:48:28;2.30;;;2.00;;
34064;SDS011;20339;49.754;20.158;2022-09-09T02:51:08;2.70;;;2.20;;
34064;SDS011;20339;49.754;20.158;2022-09-09T02:53:47;2.60;;;1.60;;
34064;SDS011;20339;49.754;20.158;2022-09-09T02:56:23;2.50;;;2.30;;
34064;SDS011;20339;49.754;20.158;2022-09-09T02:59:02;3.60;;;2.20;;
34064;SDS011;20339;49.754;20.158;2022-09-09T03:01:34;3.00;;;2.30;;
34064;SDS011;20339;49.754;20.158;2022-09-09T03:04:07;2.70;;;2.40;;
34064;SDS011;20339;49.754;20.158;2022-09-09T03:06:39;2.60;;;2.30;;
34064;SDS011;20339;49.754;20.158;2022-09-09T03:09:11;2.90;;;2.30;;
34064;SDS011;20339;49.754;20.158;2022-09-09T03:11:42;2.20;;;2.00;;
34064;SDS011;20339;49.754;20.158;2022-09-09T03:14:13;2.40;;;2.10;;
34064;SDS011;20339;49.754;20.158;2022-09-09T03:16:45;2.10;;;1.90;;
34064;SDS011;20339;49.754;20.158;2022-09-09T03:19:16;1.80;;;1.70;;
34064;SDS011;20339;49.754;20.158;2022-09-09T03:21:47;2.60;;;2.30;;
34064;SDS011;20339;49.754;20.158;2022-09-09T03:24:18;3.10;;;1.90;;
34064;SDS011;20339;49.754;20.158;2022-09-09T03:26:50;3.30;;;2.40;;
34064;SDS011;20339;49.754;20.158;2022-09-09T03:29:24;3.60;;;2.30;;
34064;SDS011;20339;49.754;20.158;2022-09-09T03:31:55;2.50;;;2.30;;
34064;SDS011;20339;49.754;20.158;2022-09-09T03:34:26;2.70;;;2.50;;
34064;SDS011;20339;49.754;20.158;2022-09-09T03:36:57;4.70;;;2.90;;
34064;SDS011;20339;49.754;20.158;2022-09-09T03:39:28;4.00;;;2.30;;
34064;SDS011;20339;49.754;20.158;2022-09-09T03:41:59;2.50;;;2.30;;
34064;SDS011;20339;49.754;20.158;2022-09-09T03:44:32;3.50;;;2.50;;
34064;SDS011;20339;49.754;20.158;2022-09-09T03:47:03;2.40;;;2.20;;
34064;SDS011;20339;49.754;20.158;2022-09-09T03:49:34;3.30;;;2.60;;
34064;SDS011;20339;49.754;20.158;2022-09-09T03:52:05;2.70;;;2.30;;
34064;SDS011;20339;49.754;20.158;2022-09-09T03:54:46;3.10;;;2.90;;
34064;SDS011;20339;49.754;20.158;2022-09-09T03:57:17;4.10;;;3.10;;
34064;SDS011;20339;49.754;20.158;2022-09-09T03:59:49;3.00;;;2.40;;
34064;SDS011;20339;49.754;20.158;2022-09-09T04:02:20;3.30;;;3.00;;
34064;SDS011;20339;49.754;20.158;2022-09-09T04:04:52;2.30;;;2.10;;
34064;SDS011;20339;49.754;20.158;2022-09-09T04:07:24;3.20;;;2.50;;
34064;SDS011;20339;49.754;20.158;2022-09-09T04:09:57;3.10;;;2.50;;
34064;SDS011;20339;49.754;20.158;2022-09-09T04:12:29;2.80;;;2.20;;
34064;SDS011;20339;49.754;20.158;2022-09-09T04:15:01;3.80;;;2.60;;
34064;SDS011;20339;49.754;20.158;2022-09-09T04:17:32;3.30;;;3.00;;
34064;SDS011;20339;49.754;20.158;2022-09-09T04:20:05;3.70;;;2.90;;
34064;SDS011;20339;49.754;20.158;2022-09-09T04:22:40;3.30;;;2.90;;
34064;SDS011;20339;49.754;20.158;2022-09-09T04:25:11;4.10;;;2.80;;
34064;SDS011;20339;49.754;20.158;2022-09-09T04:27:42;3.70;;;3.40;;
34064;SDS011;20339;49.754;20.158;2022-09-09T04:30:17;3.00;;;2.60;;
34064;SDS011;20339;49.754;20.158;2022-09-09T04:32:48;2.80;;;2.60;;
34064;SDS011;20339;49.754;20.158;2022-09-09T04:35:20;2.80;;;2.60;;
34064;SDS011;20339;49.754;20.158;2022-09-09T04:37:51;3.00;;;2.50;;
34064;SDS011;20339;49.754;20.158;2022-09-09T04:40:22;3.70;;;2.50;;
34064;SDS011;20339;49.754;20.158;2022-09-09T04:42:53;3.90;;;3.00;;
34064;SDS011;20339;49.754;20.158;2022-09-09T04:45:26;2.90;;;2.70;;
34064;SDS011;20339;49.754;20.158;2022-09-09T04:47:58;3.10;;;2.80;;
34064;SDS011;20339;49.754;20.158;2022-09-09T04:50:31;3.60;;;3.20;;
34064;SDS011;20339;49.754;20.158;2022-09-09T04:53:02;3.10;;;2.80;;
34064;SDS011;20339;49.754;20.158;2022-09-09T04:55:34;3.70;;;2.90;;
34064;SDS011;20339;49.754;20.158;2022-09-09T04:58:06;3.40;;;3.00;;
34064;SDS011;20339;49.754;20.158;2022-09-09T05:00:38;3.30;;;2.90;;
34064;SDS011;20339;49.754;20.158;2022-09-09T05:03:11;3.40;;;3.10;;
34064;SDS011;20339;49.754;20.158;2022-09-09T05:05:42;3.60;;;3.30;;
34064;SDS011;20339;49.754;20.158;2022-09-09T05:08:14;3.80;;;3.50;;
34064;SDS011;20339;49.754;20.158;2022-09-09T05:10:46;3.70;;;3.20;;
34064;SDS011;20339;49.754;20.158;2022-09-09T05:13:17;3.50;;;3.10;;
34064;SDS011;20339;49.754;20.158;2022-09-09T05:15:52;4.20;;;3.80;;
34064;SDS011;20339;49.754;20.158;2022-09-09T05:18:24;3.60;;;3.30;;
34064;SDS011;20339;49.754;20.158;2022-09-09T05:20:59;3.90;;;3.30;;
34064;SDS011;20339;49.754;20.158;2022-09-09T05:23:31;3.20;;;3.00;;
34064;SDS011;20339;49.754;20.158;2022-09-09T05:26:03;3.50;;;3.20;;
34064;SDS011;20339;49.754;20.158;2022-09-09T05:28:35;3.60;;;3.20;;
34064;SDS011;20339;49.754;20.158;2022-09-09T05:31:07;4.10;;;2.60;;
34064;SDS011;20339;49.754;20.158;2022-09-09T05:33:41;2.90;;;2.70;;
34064;SDS011;20339;49.754;20.158;2022-09-09T05:36:14;2.80;;;2.60;;
34064;SDS011;20339;49.754;20.158;2022-09-09T05:38:46;2.80;;;2.60;;
34064;SDS011;20339;49.754;20.158;2022-09-09T05:41:21;3.50;;;3.00;;
34064;SDS011;20339;49.754;20.158;2022-09-09T05:43:53;3.80;;;2.90;;
34064;SDS011;20339;49.754;20.158;2022-09-09T05:46:24;3.10;;;2.90;;
34064;SDS011;20339;49.754;20.158;2022-09-09T05:48:55;4.20;;;2.30;;
34064;SDS011;20339;49.754;20.158;2022-09-09T05:51:27;3.20;;;1.80;;
34064;SDS011;20339;49.754;20.158;2022-09-09T05:53:59;3.70;;;1.90;;
34064;SDS011;20339;49.754;20.158;2022-09-09T05:56:30;10.20;;;2.50;;
34064;SDS011;20339;49.754;20.158;2022-09-09T05:59:02;2.80;;;2.00;;
34064;SDS011;20339;49.754;20.158;2022-09-09T06:01:34;2.50;;;1.50;;
34064;SDS011;20339;49.754;20.158;2022-09-09T06:04:10;0.90;;;0.90;;
34064;SDS011;20339;49.754;20.158;2022-09-09T06:06:42;1.10;;;0.90;;
34064;SDS011;20339;49.754;20.158;2022-09-09T06:09:13;2.00;;;1.10;;
34064;SDS011;20339;49.754;20.158;2022-09-09T06:11:44;2.40;;;1.30;;
34064;SDS011;20339;49.754;20.158;2022-09-09T06:14:15;1.30;;;1.20;;
34064;SDS011;20339;49.754;20.158;2022-09-09T06:16:46;0.90;;;0.90;;
34064;SDS011;20339;49.754;20.158;2022-09-09T06:19:17;1.20;;;0.80;;
34064;SDS011;20339;49.754;20.158;2022-09-09T06:21:49;1.30;;;1.20;;
34064;SDS011;20339;49.754;20.158;2022-09-09T06:24:21;3.10;;;1.20;;
34064;SDS011;20339;49.754;20.158;2022-09-09T06:26:52;1.20;;;1.00;;
34064;SDS011;20339;49.754;20.158;2022-09-09T06:29:23;1.40;;;1.10;;
34064;SDS011;20339;49.754;20.158;2022-09-09T06:31:55;1.70;;;1.60;;
34064;SDS011;20339;49.754;20.158;2022-09-09T06:34:27;1.80;;;1.50;;
34064;SDS011;20339;49.754;20.158;2022-09-09T06:36:58;1.70;;;1.00;;
34064;SDS011;20339;49.754;20.158;2022-09-09T06:39:29;1.60;;;1.20;;
34064;SDS011;20339;49.754;20.158;2022-09-09T06:42:00;1.10;;;1.00;;
34064;SDS011;20339;49.754;20.158;2022-09-09T06:44:32;1.30;;;1.00;;
34064;SDS011;20339;49.754;20.158;2022-09-09T06:47:04;3.60;;;1.20;;
34064;SDS011;20339;49.754;20.158;2022-09-09T06:49:35;1.30;;;0.90;;
34064;SDS011;20339;49.754;20.158;2022-09-09T06:52:07;1.10;;;1.00;;
34064;SDS011;20339;49.754;20.158;2022-09-09T06:54:38;2.50;;;0.90;;
34064;SDS011;20339;49.754;20.158;2022-09-09T06:57:09;1.40;;;1.10;;
34064;SDS011;20339;49.754;20.158;2022-09-09T06:59:40;1.50;;;1.10;;
34064;SDS011;20339;49.754;20.158;2022-09-09T07:02:13;1.50;;;1.40;;
34064;SDS011;20339;49.754;20.158;2022-09-09T07:04:45;0.70;;;0.70;;
34064;SDS011;20339;49.754;20.158;2022-09-09T07:07:19;0.90;;;0.60;;
34064;SDS011;20339;49.754;20.158;2022-09-09T07:09:52;1.70;;;1.10;;
34064;SDS011;20339;49.754;20.158;2022-09-09T07:12:24;0.60;;;0.60;;
34064;SDS011;20339;49.754;20.158;2022-09-09T07:14:56;4.80;;;1.10;;
34064;SDS011;20339;49.754;20.158;2022-09-09T07:17:28;0.80;;;0.80;;
34064;SDS011;20339;49.754;20.158;2022-09-09T07:19:59;1.30;;;0.80;;
34064;SDS011;20339;49.754;20.158;2022-09-09T07:22:32;1.10;;;0.80;;
34064;SDS011;20339;49.754;20.158;2022-09-09T07:25:05;1.70;;;0.80;;
34064;SDS011;20339;49.754;20.158;2022-09-09T07:27:37;2.10;;;1.20;;
34064;SDS011;20339;49.754;20.158;2022-09-09T07:30:10;0.80;;;0.80;;
34064;SDS011;20339;49.754;20.158;2022-09-09T07:32:42;1.30;;;0.80;;
34064;SDS011;20339;49.754;20.158;2022-09-09T07:35:14;1.20;;;1.10;;
34064;SDS011;20339;49.754;20.158;2022-09-09T07:37:45;3.30;;;1.10;;
34064;SDS011;20339;49.754;20.158;2022-09-09T07:40:16;1.20;;;1.00;;
34064;SDS011;20339;49.754;20.158;2022-09-09T07:42:49;1.60;;;1.10;;
34064;SDS011;20339;49.754;20.158;2022-09-09T07:45:21;2.10;;;1.10;;
34064;SDS011;20339;49.754;20.158;2022-09-09T07:47:52;1.70;;;0.80;;
34064;SDS011;20339;49.754;20.158;2022-09-09T07:50:25;2.00;;;1.10;;
34064;SDS011;20339;49.754;20.158;2022-09-09T07:52:58;1.20;;;0.90;;
34064;SDS011;20339;49.754;20.158;2022-09-09T07:55:30;2.80;;;1.30;;
34064;SDS011;20339;49.754;20.158;2022-09-09T07:58:01;2.20;;;1.40;;
34064;SDS011;20339;49.754;20.158;2022-09-09T08:00:32;1.50;;;1.00;;
34064;SDS011;20339;49.754;20.158;2022-09-09T08:03:04;1.20;;;1.10;;
34064;SDS011;20339;49.754;20.158;2022-09-09T08:05:35;2.20;;;1.30;;
34064;SDS011;20339;49.754;20.158;2022-09-09T08:08:07;1.70;;;1.00;;
34064;SDS011;20339;49.754;20.158;2022-09-09T08:10:38;3.10;;;1.50;;
34064;SDS011;20339;49.754;20.158;2022-09-09T08:13:09;2.40;;;1.10;;
34064;SDS011;20339;49.754;20.158;2022-09-09T08:15:40;1.20;;;1.10;;
34064;SDS011;20339;49.754;20.158;2022-09-09T08:18:12;2.10;;;1.60;;
34064;SDS011;20339;49.754;20.158;2022-09-09T08:20:43;2.00;;;1.30;;
34064;SDS011;20339;49.754;20.158;2022-09-09T08:23:14;1.40;;;1.30;;
34064;SDS011;20339;49.754;20.158;2022-09-09T08:25:46;1.30;;;1.20;;
34064;SDS011;20339;49.754;20.158;2022-09-09T08:28:19;1.80;;;1.40;;
34064;SDS011;20339;49.754;20.158;2022-09-09T08:30:50;2.20;;;1.60;;
34064;SDS011;20339;49.754;20.158;2022-09-09T08:33:22;2.10;;;1.50;;
34064;SDS011;20339;49.754;20.158;2022-09-09T08:35:53;2.60;;;1.50;;
34064;SDS011;20339;49.754;20.158;2022-09-09T08:38:24;1.30;;;1.20;;
34064;SDS011;20339;49.754;20.158;2022-09-09T08:40:57;1.50;;;1.40;;
34064;SDS011;20339;49.754;20.158;2022-09-09T08:43:41;1.90;;;1.20;;
34064;SDS011;20339;49.754;20.158;2022-09-09T08:46:16;1.60;;;1.30;;
34064;SDS011;20339;49.754;20.158;2022-09-09T08:48:55;2.40;;;1.60;;
34064;SDS011;20339;49.754;20.158;2022-09-09T08:51:32;1.10;;;1.00;;
34064;SDS011;20339;49.754;20.158;2022-09-09T08:54:05;1.40;;;1.10;;
34064;SDS011;20339;49.754;20.158;2022-09-09T08:56:48;2.60;;;0.90;;
34064;SDS011;20339;49.754;20.158;2022-09-09T08:59:19;1.40;;;0.90;;
34064;SDS011;20339;49.754;20.158;2022-09-09T09:02:02;3.80;;;1.10;;
34064;SDS011;20339;49.754;20.158;2022-09-09T09:04:48;1.40;;;0.90;;
34064;SDS011;20339;49.754;20.158;2022-09-09T09:07:36;1.60;;;0.80;;
34064;SDS011;20339;49.754;20.158;2022-09-09T09:10:19;1.20;;;0.90;;
34064;SDS011;20339;49.754;20.158;2022-09-09T09:13:00;1.30;;;0.80;;
34064;SDS011;20339;49.754;20.158;2022-09-09T09:15:33;2.30;;;1.10;;
34064;SDS011;20339;49.754;20.158;2022-09-09T09:18:08;1.60;;;1.10;;
34064;SDS011;20339;49.754;20.158;2022-09-09T09:20:46;1.70;;;1.20;;
34064;SDS011;20339;49.754;20.158;2022-09-09T09:23:24;2.50;;;1.10;;
34064;SDS011;20339;49.754;20.158;2022-09-09T09:26:05;1.40;;;0.90;;
34064;SDS011;20339;49.754;20.158;2022-09-09T09:28:38;2.70;;;1.00;;
34064;SDS011;20339;49.754;20.158;2022-09-09T09:31:10;1.60;;;1.00;;
34064;SDS011;20339;49.754;20.158;2022-09-09T09:33:45;1.10;;;1.00;;
34064;SDS011;20339;49.754;20.158;2022-09-09T09:36:18;1.50;;;1.20;;
34064;SDS011;20339;49.754;20.158;2022-09-09T09:38:54;4.00;;;1.00;;
34064;SDS011;20339;49.754;20.158;2022-09-09T09:41:34;2.40;;;1.00;;
34064;SDS011;20339;49.754;20.158;2022-09-09T09:44:21;1.10;;;0.90;;
34064;SDS011;20339;49.754;20.158;2022-09-09T09:47:04;1.90;;;0.90;;
34064;SDS011;20339;49.754;20.158;2022-09-09T09:49:37;2.70;;;1.00;;
34064;SDS011;20339;49.754;20.158;2022-09-09T09:52:13;0.80;;;0.80;;
34064;SDS011;20339;49.754;20.158;2022-09-09T09:54:50;1.40;;;1.00;;
34064;SDS011;20339;49.754;20.158;2022-09-09T09:57:24;1.80;;;1.00;;
34064;SDS011;20339;49.754;20.158;2022-09-09T10:00:11;1.20;;;0.90;;
34064;SDS011;20339;49.754;20.158;2022-09-09T10:02:46;2.50;;;1.70;;
34064;SDS011;20339;49.754;20.158;2022-09-09T10:05:20;1.60;;;1.10;;
34064;SDS011;20339;49.754;20.158;2022-09-09T10:08:08;1.30;;;1.00;;
34064;SDS011;20339;49.754;20.158;2022-09-09T10:10:45;1.50;;;1.20;;
34064;SDS011;20339;49.754;20.158;2022-09-09T10:13:33;1.10;;;0.90;;
34064;SDS011;20339;49.754;20.158;2022-09-09T10:16:20;2.80;;;1.00;;
34064;SDS011;20339;49.754;20.158;2022-09-09T10:19:02;2.20;;;1.00;;
34064;SDS011;20339;49.754;20.158;2022-09-09T10:21:46;1.00;;;0.90;;
34064;SDS011;20339;49.754;20.158;2022-09-09T10:24:36;1.00;;;0.80;;
34064;SDS011;20339;49.754;20.158;2022-09-09T10:27:33;2.30;;;1.20;;
34064;SDS011;20339;49.754;20.158;2022-09-09T10:30:16;1.20;;;0.90;;
34064;SDS011;20339;49.754;20.158;2022-09-09T10:32:54;2.80;;;1.10;;
34064;SDS011;20339;49.754;20.158;2022-09-09T10:35:34;1.90;;;1.10;;
34064;SDS011;20339;49.754;20.158;2022-09-09T10:38:18;1.90;;;1.10;;
34064;SDS011;20339;49.754;20.158;2022-09-09T10:41:04;1.30;;;1.20;;
34064;SDS011;20339;49.754;20.158;2022-09-09T10:43:50;1.30;;;1.00;;
34064;SDS011;20339;49.754;20.158;2022-09-09T10:46:34;1.90;;;1.30;;
34064;SDS011;20339;49.754;20.158;2022-09-09T10:49:16;2.50;;;1.20;;
34064;SDS011;20339;49.754;20.158;2022-09-09T10:51:55;2.70;;;1.50;;
34064;SDS011;20339;49.754;20.158;2022-09-09T10:54:38;2.10;;;1.00;;
34064;SDS011;20339;49.754;20.158;2022-09-09T10:57:29;2.10;;;1.10;;
34064;SDS011;20339;49.754;20.158;2022-09-09T11:00:05;2.40;;;1.00;;
34064;SDS011;20339;49.754;20.158;2022-09-09T11:02:45;2.10;;;1.10;;
34064;SDS011;20339;49.754;20.158;2022-09-09T11:05:22;1.50;;;1.00;;
34064;SDS011;20339;49.754;20.158;2022-09-09T11:07:59;1.30;;;1.20;;
34064;SDS011;20339;49.754;20.158;2022-09-09T11:10:36;1.40;;;0.90;;
34064;SDS011;20339;49.754;20.158;2022-09-09T11:13:15;0.70;;;0.70;;
34064;SDS011;20339;49.754;20.158;2022-09-09T11:15:53;1.60;;;0.90;;
34064;SDS011;20339;49.754;20.158;2022-09-09T11:18:32;2.20;;;0.80;;
34064;SDS011;20339;49.754;20.158;2022-09-09T11:21:15;1.80;;;0.60;;
34064;SDS011;20339;49.754;20.158;2022-09-09T11:23:54;0.60;;;0.60;;
34064;SDS011;20339;49.754;20.158;2022-09-09T11:26:33;1.30;;;0.80;;
34064;SDS011;20339;49.754;20.158;2022-09-09T11:29:12;0.60;;;0.50;;
34064;SDS011;20339;49.754;20.158;2022-09-09T11:32:03;0.90;;;0.60;;
34064;SDS011;20339;49.754;20.158;2022-09-09T11:34:53;1.30;;;0.70;;
34064;SDS011;20339;49.754;20.158;2022-09-09T11:37:38;0.70;;;0.50;;
34064;SDS011;20339;49.754;20.158;2022-09-09T11:43:05;1.40;;;0.70;;
34064;SDS011;20339;49.754;20.158;2022-09-09T11:45:41;1.40;;;0.70;;
34064;SDS011;20339;49.754;20.158;2022-09-09T11:48:25;1.10;;;0.90;;
34064;SDS011;20339;49.754;20.158;2022-09-09T11:51:02;2.00;;;0.90;;
34064;SDS011;20339;49.754;20.158;2022-09-09T11:53:46;1.20;;;1.10;;
34064;SDS011;20339;49.754;20.158;2022-09-09T11:56:27;1.70;;;0.90;;
34064;SDS011;20339;49.754;20.158;2022-09-09T11:59:02;1.10;;;0.80;;
34064;SDS011;20339;49.754;20.158;2022-09-09T12:01:36;0.80;;;0.80;;
34064;SDS011;20339;49.754;20.158;2022-09-09T12:04:15;0.90;;;0.80;;
34064;SDS011;20339;49.754;20.158;2022-09-09T12:09:42;0.90;;;0.70;;
34064;SDS011;20339;49.754;20.158;2022-09-09T12:12:23;0.80;;;0.70;;
34064;SDS011;20339;49.754;20.158;2022-09-09T12:15:01;1.40;;;0.80;;
34064;SDS011;20339;49.754;20.158;2022-09-09T12:17:50;1.80;;;1.10;;
34064;SDS011;20339;49.754;20.158;2022-09-09T12:20:23;0.70;;;0.70;;
34064;SDS011;20339;49.754;20.158;2022-09-09T12:26:24;1.00;;;0.90;;
34064;SDS011;20339;49.754;20.158;2022-09-09T12:29:04;1.70;;;1.00;;
34064;SDS011;20339;49.754;20.158;2022-09-09T12:31:43;1.40;;;1.00;;
34064;SDS011;20339;49.754;20.158;2022-09-09T12:34:24;2.50;;;0.90;;
34064;SDS011;20339;49.754;20.158;2022-09-09T12:37:16;0.80;;;0.80;;
34064;SDS011;20339;49.754;20.158;2022-09-09T12:39:55;1.80;;;0.80;;
34064;SDS011;20339;49.754;20.158;2022-09-09T12:42:28;0.90;;;0.70;;
34064;SDS011;20339;49.754;20.158;2022-09-09T12:45:02;2.00;;;0.90;;
34064;SDS011;20339;49.754;20.158;2022-09-09T12:47:45;1.70;;;1.10;;
34064;SDS011;20339;49.754;20.158;2022-09-09T12:50:24;0.70;;;0.70;;
34064;SDS011;20339;49.754;20.158;2022-09-09T12:52:59;1.00;;;0.60;;
34064;SDS011;20339;49.754;20.158;2022-09-09T12:55:37;1.00;;;0.90;;
34064;SDS011;20339;49.754;20.158;2022-09-09T12:58:23;0.90;;;0.90;;
34064;SDS011;20339;49.754;20.158;2022-09-09T13:00:56;1.00;;;0.80;;
34064;SDS011;20339;49.754;20.158;2022-09-09T13:03:28;1.30;;;0.90;;
34064;SDS011;20339;49.754;20.158;2022-09-09T13:06:10;0.80;;;0.80;;
34064;SDS011;20339;49.754;20.158;2022-09-09T13:08:47;1.10;;;0.80;;
34064;SDS011;20339;49.754;20.158;2022-09-09T13:11:20;1.40;;;0.60;;
34064;SDS011;20339;49.754;20.158;2022-09-09T13:13:54;1.40;;;0.90;;
34064;SDS011;20339;49.754;20.158;2022-09-09T13:16:27;1.10;;;0.90;;
34064;SDS011;20339;49.754;20.158;2022-09-09T13:19:01;0.60;;;0.60;;
34064;SDS011;20339;49.754;20.158;2022-09-09T13:21:37;3.10;;;1.00;;
34064;SDS011;20339;49.754;20.158;2022-09-09T13:24:22;1.50;;;0.70;;
34064;SDS011;20339;49.754;20.158;2022-09-09T13:26:58;1.90;;;0.90;;
34064;SDS011;20339;49.754;20.158;2022-09-09T13:29:32;0.90;;;0.80;;
34064;SDS011;20339;49.754;20.158;2022-09-09T13:32:05;1.30;;;1.20;;
34064;SDS011;20339;49.754;20.158;2022-09-09T13:34:51;1.30;;;1.10;;
34064;SDS011;20339;49.754;20.158;2022-09-09T13:37:28;1.70;;;0.80;;
34064;SDS011;20339;49.754;20.158;2022-09-09T13:40:05;1.40;;;0.80;;
34064;SDS011;20339;49.754;20.158;2022-09-09T13:42:46;2.10;;;0.80;;
34064;SDS011;20339;49.754;20.158;2022-09-09T13:45:21;1.80;;;0.80;;
34064;SDS011;20339;49.754;20.158;2022-09-09T13:47:57;0.90;;;0.70;;
34064;SDS011;20339;49.754;20.158;2022-09-09T13:50:40;1.10;;;0.90;;
34064;SDS011;20339;49.754;20.158;2022-09-09T13:53:13;0.80;;;0.80;;
34064;SDS011;20339;49.754;20.158;2022-09-09T13:55:45;2.90;;;0.80;;
34064;SDS011;20339;49.754;20.158;2022-09-09T13:58:16;0.70;;;0.70;;
34064;SDS011;20339;49.754;20.158;2022-09-09T14:00:49;2.10;;;1.00;;
34064;SDS011;20339;49.754;20.158;2022-09-09T14:03:21;1.00;;;0.80;;
34064;SDS011;20339;49.754;20.158;2022-09-09T14:05:52;1.40;;;0.80;;
34064;SDS011;20339;49.754;20.158;2022-09-09T14:08:26;1.10;;;0.90;;
34064;SDS011;20339;49.754;20.158;2022-09-09T14:11:04;0.90;;;0.70;;
34064;SDS011;20339;49.754;20.158;2022-09-09T14:13:40;1.10;;;0.90;;
34064;SDS011;20339;49.754;20.158;2022-09-09T14:16:11;1.50;;;1.00;;
34064;SDS011;20339;49.754;20.158;2022-09-09T14:18:43;1.50;;;1.00;;
34064;SDS011;20339;49.754;20.158;2022-09-09T14:21:15;1.30;;;0.80;;
34064;SDS011;20339;49.754;20.158;2022-09-09T14:23:46;1.00;;;0.80;;
34064;SDS011;20339;49.754;20.158;2022-09-09T14:26:17;0.90;;;0.80;;
34064;SDS011;20339;49.754;20.158;2022-09-09T14:28:48;0.90;;;0.70;;
34064;SDS011;20339;49.754;20.158;2022-09-09T14:31:20;0.90;;;0.90;;
34064;SDS011;20339;49.754;20.158;2022-09-09T14:33:52;1.10;;;0.90;;
34064;SDS011;20339;49.754;20.158;2022-09-09T14:36:23;1.50;;;0.90;;
34064;SDS011;20339;49.754;20.158;2022-09-09T14:38:54;1.10;;;0.90;;
34064;SDS011;20339;49.754;20.158;2022-09-09T14:41:26;1.20;;;1.10;;
34064;SDS011;20339;49.754;20.158;2022-09-09T14:43:57;0.80;;;0.80;;
34064;SDS011;20339;49.754;20.158;2022-09-09T14:46:28;2.50;;;0.80;;
34064;SDS011;20339;49.754;20.158;2022-09-09T14:49:00;2.60;;;0.90;;
34064;SDS011;20339;49.754;20.158;2022-09-09T14:51:32;1.00;;;1.00;;
34064;SDS011;20339;49.754;20.158;2022-09-09T14:54:07;2.00;;;0.90;;
34064;SDS011;20339;49.754;20.158;2022-09-09T14:56:41;1.40;;;0.90;;
34064;SDS011;20339;49.754;20.158;2022-09-09T14:59:12;1.00;;;0.90;;
34064;SDS011;20339;49.754;20.158;2022-09-09T15:01:43;1.20;;;1.00;;
34064;SDS011;20339;49.754;20.158;2022-09-09T15:04:16;1.60;;;1.00;;
34064;SDS011;20339;49.754;20.158;2022-09-09T15:06:48;1.50;;;0.90;;
34064;SDS011;20339;49.754;20.158;2022-09-09T15:09:21;1.60;;;1.10;;
34064;SDS011;20339;49.754;20.158;2022-09-09T15:11:53;2.20;;;0.80;;
34064;SDS011;20339;49.754;20.158;2022-09-09T15:14:27;0.80;;;0.80;;
34064;SDS011;20339;49.754;20.158;2022-09-09T15:16:58;16.80;;;4.40;;
34064;SDS011;20339;49.754;20.158;2022-09-09T15:19:30;17.20;;;4.90;;
34064;SDS011;20339;49.754;20.158;2022-09-09T15:22:02;6.80;;;2.40;;
34064;SDS011;20339;49.754;20.158;2022-09-09T15:24:35;1.20;;;0.90;;
34064;SDS011;20339;49.754;20.158;2022-09-09T15:27:07;2.00;;;1.10;;
34064;SDS011;20339;49.754;20.158;2022-09-09T15:29:39;38.50;;;14.20;;
34064;SDS011;20339;49.754;20.158;2022-09-09T15:32:12;39.60;;;13.30;;
34064;SDS011;20339;49.754;20.158;2022-09-09T15:34:43;13.70;;;5.40;;
34064;SDS011;20339;49.754;20.158;2022-09-09T15:37:16;8.00;;;3.10;;